Overview Statistics Trail Chart Weather Telemetry Raw packets
 

This is the latest recevied weather packets stored in our database for station/object IW2NIA-3. If no packets are shown the sender has not sent any weather packets the latest 10 day(s).

<< 15 16 17 18 19 20 21 >>
Time Temp. Humidity Pressure Rain* Wind** Luminosity Snow
1788287612 25.56° C 74% 1016.9 hPa 0 mm - - -
1788286723 25.56° C 72% 1016.7 hPa 0 mm - - -
1788285818 26.67° C 69% 1016.6 hPa 0 mm - - -
1788284913 27.22° C 65% 1016.6 hPa 0 mm - - -
1788284017 27.22° C 63% 1016.5 hPa 0 mm - - -
1788283109 27.78° C 61% 1016.3 hPa 0 mm - - -
1788282220 27.78° C 60% 1016.3 hPa 0 mm - - -
1788281317 28.33° C 60% 1016.4 hPa 0 mm - - -
1788280426 28.89° C 57% 1016.4 hPa 0 mm - - -
1788279523 29.44° C 56% 1016.5 hPa 0 mm - - -
1788278621 29.44° C 55% 1016.5 hPa 0 mm - - -
1788277716 28.89° C 57% 1016.5 hPa 0 mm - - -
1788276814 29.44° C 57% 1016.5 hPa 0 mm - - -
1788275912 29.44° C 56% 1016.5 hPa 0 mm - - -
1788275024 29.44° C 54% 1016.6 hPa 0 mm - - -
1788274110 29.44° C 56% 1016.8 hPa 0 mm - - -
1788273206 29.44° C 55% 1016.8 hPa 0 mm - - -
1788272320 29.44° C 60% 1016.9 hPa 0 mm - - -
1788271428 29.44° C 56% 1017 hPa 0 mm - - -
1788270507 29.44° C 57% 1017 hPa 0 mm - - -
1788269620 28.89° C 58% 1017 hPa 0 mm - - -
1788268710 28.33° C 58% 1017.3 hPa 0 mm - - -
1788267823 28.33° C 56% 1017.3 hPa 0 mm - - -
1788266912 28.33° C 55% 1017.6 hPa 0 mm - - -
1788266026 27.78° C 61% 1017.7 hPa 0 mm - - -

* Rain latest hour (hover to see other rain measurements)
** Current wind speed in m/s (hover to see current wind gust speed)